Time;durP1;ratioP1;P1;durP2;ratioP2;P2;SDS_P1;SDS_P2;PMS_P1;PMS_P2;Temp;Humidity;BMP_temperature;BMP_pressure;BME280_temperature;BME280_humidity;BME280_pressure;Samples;Min_cycle;Max_cycle;Signal;HPM_P1;HPM_P2
2023/04/08 00:01:24;;;;;;;34.20;15.65;;;;;;;-143.48;100.00;118439.88;5056998;28;20025;-68
2023/04/08 00:03:50;;;;;;;38.55;14.85;;;;;;;-143.48;100.00;118439.88;5056593;28;20063;-68
2023/04/08 00:06:15;;;;;;;32.47;15.20;;;;;;;-143.48;100.00;118439.88;5038957;28;20538;-68
2023/04/08 00:08:40;;;;;;;34.05;15.27;;;;;;;-143.48;100.00;118439.88;5056985;28;20392;-68
2023/04/08 00:11:06;;;;;;;65.43;15.48;;;;;;;-143.48;100.00;118439.88;5056873;28;20017;-68
2023/04/08 00:13:31;;;;;;;33.30;15.50;;;;;;;-143.48;100.00;118439.88;5056633;28;20013;-68
2023/04/08 00:15:57;;;;;;;31.23;14.55;;;;;;;-143.48;100.00;118439.88;5038714;28;20028;-67
2023/04/08 00:18:22;;;;;;;34.40;14.82;;;;;;;-143.48;100.00;118439.88;5056078;28;20435;-68
2023/04/08 00:20:47;;;;;;;33.60;14.50;;;;;;;-143.48;100.00;118439.88;5056732;28;20039;-68
2023/04/08 00:23:13;;;;;;;39.95;15.77;;;;;;;-143.48;100.00;118439.88;5056386;28;20021;-69
2023/04/08 00:25:38;;;;;;;36.35;15.82;;;;;;;-143.48;100.00;118439.88;5056348;28;20021;-69
2023/04/08 00:28:03;;;;;;;49.78;16.42;;;;;;;-143.48;100.00;118439.88;5056249;28;20029;-68
2023/04/08 00:30:29;;;;;;;33.72;15.85;;;;;;;-143.48;100.00;118439.88;5056006;28;20032;-69
2023/04/08 00:32:54;;;;;;;42.72;15.93;;;;;;;-143.48;100.00;118439.88;5056956;28;20025;-68
2023/04/08 00:35:19;;;;;;;67.35;14.88;;;;;;;-143.48;100.00;118439.88;5056268;28;20025;-69
2023/04/08 00:37:45;;;;;;;57.22;16.02;;;;;;;-143.48;100.00;118439.88;5056324;28;20047;-68
2023/04/08 00:40:11;;;;;;;37.30;16.38;;;;;;;-143.48;100.00;118439.88;5056254;28;20024;-68
2023/04/08 00:42:37;;;;;;;74.47;17.52;;;;;;;-143.48;100.00;118439.88;5055826;28;20514;-68
2023/04/08 00:45:02;;;;;;;46.22;16.77;;;;;;;-143.48;100.00;118439.88;5056136;28;20104;-68
2023/04/08 00:47:28;;;;;;;34.42;16.05;;;;;;;-143.48;100.00;118439.88;5056036;28;20035;-68
2023/04/08 00:49:53;;;;;;;60.85;15.30;;;;;;;-143.48;100.00;118439.88;5056425;28;20029;-68
2023/04/08 00:52:19;;;;;;;73.20;15.90;;;;;;;-143.48;100.00;118439.88;5055973;28;20069;-68
2023/04/08 00:54:44;;;;;;;41.95;15.60;;;;;;;-143.48;100.00;118439.88;5055816;28;20505;-68
2023/04/08 00:57:09;;;;;;;61.83;16.63;;;;;;;-143.48;100.00;118439.88;5056051;28;20044;-68
2023/04/08 00:59:35;;;;;;;37.30;17.33;;;;;;;-143.48;100.00;118439.88;5055909;28;20029;-67
2023/04/08 01:02:05;;;;;;;53.22;18.20;;;;;;;-143.48;100.00;118439.88;5055757;28;20026;-68
2023/04/08 01:05:25;;;;;;;37.83;18.27;;;;;;;-143.48;100.00;118439.88;5055737;28;20461;-68
2023/04/08 01:07:51;;;;;;;35.30;16.98;;;;;;;-143.48;100.00;118439.88;4974018;28;20057;-68
2023/04/08 01:10:21;;;;;;;36.78;17.77;;;;;;;-143.48;100.00;118439.88;5038837;28;20116;-68
2023/04/08 01:12:52;;;;;;;50.50;16.55;;;;;;;-143.48;100.00;118439.88;5055561;28;20425;-69
2023/04/08 01:15:19;;;;;;;44.28;17.40;;;;;;;-143.48;100.00;118439.88;5055802;28;20033;-68
2023/04/08 01:17:45;;;;;;;95.75;17.40;;;;;;;-143.48;100.00;118439.88;5055428;28;20035;-68
2023/04/08 01:20:12;;;;;;;108.43;17.75;;;;;;;-143.48;100.00;118439.88;5055358;28;20021;-68
2023/04/08 01:23:15;;;;;;;73.72;16.75;;;;;;;-143.48;100.00;118439.88;5055183;28;20471;-68
2023/04/08 01:25:46;;;;;;;63.22;17.25;;;;;;;-143.48;100.00;118439.88;5037503;28;20033;-69
2023/04/08 01:28:15;;;;;;;131.05;20.40;;;;;;;-143.48;100.00;118439.88;5055469;28;20056;-68
2023/04/08 01:30:42;;;;;;;162.80;17.50;;;;;;;-143.48;100.00;118439.88;5055316;28;20032;-68
2023/04/08 01:33:10;;;;;;;307.42;20.80;;;;;;;-143.48;100.00;118439.88;5055298;28;20044;-68
2023/04/08 01:35:36;;;;;;;179.93;19.02;;;;;;;-143.48;100.00;118439.88;5055403;28;20025;-67
2023/04/08 01:38:02;;;;;;;152.52;20.17;;;;;;;-143.48;100.00;118439.88;5055108;28;20029;-68
2023/04/08 01:40:28;;;;;;;186.15;20.58;;;;;;;-143.48;100.00;118439.88;5054967;28;20464;-68
2023/04/08 01:42:55;;;;;;;141.68;18.63;;;;;;;-143.48;100.00;118439.88;5055025;28;20028;-68
2023/04/08 01:45:22;;;;;;;169.55;21.52;;;;;;;-143.48;100.00;118439.88;5054909;28;20100;-68
2023/04/08 01:47:48;;;;;;;176.98;19.70;;;;;;;-143.48;100.00;118439.88;5055101;28;20041;-68
2023/04/08 01:50:15;;;;;;;98.82;17.75;;;;;;;-143.48;100.00;118439.88;5054958;28;20096;-68
2023/04/08 01:52:43;;;;;;;92.05;19.15;;;;;;;-143.48;100.00;118439.88;5054996;28;20147;-68
2023/04/08 01:55:09;;;;;;;62.58;19.45;;;;;;;-143.48;100.00;118439.88;5054856;28;20036;-67
2023/04/08 01:57:37;;;;;;;131.60;19.52;;;;;;;-143.48;100.00;118439.88;5036691;28;20021;-69
2023/04/08 02:00:07;;;;;;;72.45;18.75;;;;;;;-143.48;100.00;118439.88;5054888;28;20025;-68
2023/04/08 02:02:35;;;;;;;96.15;18.95;;;;;;;-143.48;100.00;118439.88;5036776;28;20063;-68
2023/04/08 02:05:01;;;;;;;105.50;20.00;;;;;;;-143.48;100.00;118439.88;5054403;28;20078;-68
2023/04/08 02:07:26;;;;;;;91.65;19.52;;;;;;;-143.48;100.00;118439.88;5054583;28;20029;-68
2023/04/08 02:09:51;;;;;;;120.57;19.45;;;;;;;-143.48;100.00;118439.88;5054490;28;20104;-68
2023/04/08 02:12:17;;;;;;;72.40;18.85;;;;;;;-143.48;100.00;118439.88;5054451;28;20025;-68
2023/04/08 02:14:42;;;;;;;52.33;19.25;;;;;;;-143.48;100.00;118439.88;5054419;28;20025;-68
2023/04/08 02:17:12;;;;;;;68.88;20.48;;;;;;;-143.48;100.00;118439.88;5054481;28;20088;-69
2023/04/08 02:19:47;;;;;;;45.17;18.20;;;;;;;-143.48;100.00;118439.88;5053286;28;20056;-68
2023/04/08 02:22:23;;;;;;;57.78;19.33;;;;;;;-143.48;100.00;118439.88;5036746;28;20029;-67
2023/04/08 02:24:49;;;;;;;41.65;19.25;;;;;;;-143.48;100.00;118439.88;5054806;28;20013;-68
2023/04/08 02:27:16;;;;;;;50.88;19.83;;;;;;;-143.48;100.00;118439.88;5054225;28;20082;-68
2023/04/08 02:29:41;;;;;;;40.72;19.02;;;;;;;-143.48;100.00;118439.88;5054157;28;20111;-68
2023/04/08 02:32:11;;;;;;;36.78;18.88;;;;;;;-143.48;100.00;118439.88;5054243;28;20103;-68
2023/04/08 02:34:39;;;;;;;42.25;20.60;;;;;;;-143.48;100.00;118439.88;5054091;28;20025;-68
2023/04/08 02:37:04;;;;;;;38.13;19.92;;;;;;;-143.48;100.00;118439.88;5054273;28;20357;-68
2023/04/08 02:39:31;;;;;;;43.05;20.02;;;;;;;-143.48;100.00;118439.88;5053943;28;20025;-68
2023/04/08 02:41:56;;;;;;;40.53;18.80;;;;;;;-143.48;100.00;118439.88;5053717;28;20053;-68
2023/04/08 02:44:22;;;;;;;39.67;20.73;;;;;;;-143.48;100.00;118439.88;5053671;28;20032;-68
2023/04/08 02:46:47;;;;;;;37.58;20.08;;;;;;;-143.48;100.00;118439.88;5053935;28;20025;-68
2023/04/08 02:49:12;;;;;;;38.92;20.08;;;;;;;-143.48;100.00;118439.88;5053771;28;20028;-68
2023/04/08 02:51:37;;;;;;;38.97;20.58;;;;;;;-143.48;100.00;118439.88;5054009;28;20025;-68
2023/04/08 02:54:03;;;;;;;39.25;20.35;;;;;;;-143.48;100.00;118439.88;5054045;28;20041;-67
2023/04/08 02:56:28;;;;;;;42.25;20.17;;;;;;;-143.48;100.00;118439.88;5054154;28;20057;-68
2023/04/08 02:58:54;;;;;;;41.58;20.10;;;;;;;-143.48;100.00;118439.88;5053781;28;20021;-67
2023/04/08 03:01:19;;;;;;;36.10;20.25;;;;;;;-143.48;100.00;118439.88;5053608;28;20479;-68
2023/04/08 03:03:45;;;;;;;37.20;20.13;;;;;;;-143.48;100.00;118439.88;5053508;28;20465;-68
2023/04/08 03:06:10;;;;;;;38.67;20.80;;;;;;;-143.48;100.00;118439.88;5053863;28;20055;-68
2023/04/08 03:08:35;;;;;;;37.28;20.48;;;;;;;-143.48;100.00;118439.88;5053786;28;20028;-68
2023/04/08 03:11:01;;;;;;;42.40;21.73;;;;;;;-143.48;100.00;118439.88;5053660;28;20017;-67
2023/04/08 03:13:26;;;;;;;43.25;21.67;;;;;;;-143.48;100.00;118439.88;5053655;28;20022;-69
2023/04/08 03:15:51;;;;;;;37.65;20.83;;;;;;;-143.48;100.00;118439.88;5035504;28;20116;-67
2023/04/08 03:18:17;;;;;;;41.70;21.85;;;;;;;-143.48;100.00;118439.88;5053356;28;20025;-68
2023/04/08 03:20:42;;;;;;;45.25;22.45;;;;;;;-143.48;100.00;118439.88;5053700;28;20060;-69
2023/04/08 03:23:07;;;;;;;42.65;22.42;;;;;;;-143.48;100.00;118439.88;5053563;28;20029;-68
2023/04/08 03:25:32;;;;;;;36.67;20.52;;;;;;;-143.48;100.00;118439.88;5053393;28;20028;-67
2023/04/08 03:27:58;;;;;;;38.53;21.48;;;;;;;-143.48;100.00;118439.88;5053311;28;20537;-68
2023/04/08 03:30:23;;;;;;;41.42;22.15;;;;;;;-143.48;100.00;118439.88;5054717;28;20017;-67
2023/04/08 03:32:48;;;;;;;38.60;21.70;;;;;;;-143.48;100.00;118439.88;5057513;28;20025;-68
2023/04/08 03:35:14;;;;;;;38.13;21.52;;;;;;;-143.48;100.00;118439.88;5057631;28;20356;-68
2023/04/08 03:37:39;;;;;;;42.63;22.00;;;;;;;-143.48;100.00;118439.88;5057608;28;20025;-68
2023/04/08 03:40:05;;;;;;;37.78;21.83;;;;;;;-143.48;100.00;118439.88;5057416;28;20415;-68
2023/04/08 03:42:31;;;;;;;38.65;21.55;;;;;;;-143.48;100.00;118439.88;5056881;28;20040;-68
2023/04/08 03:44:56;;;;;;;38.50;21.70;;;;;;;-143.48;100.00;118439.88;5057119;28;20029;-67
2023/04/08 03:47:21;;;;;;;36.00;21.38;;;;;;;-143.48;100.00;118439.88;5057401;28;20394;-68
2023/04/08 03:49:47;;;;;;;44.10;22.08;;;;;;;-143.48;100.00;118439.88;5057145;28;20354;-68
2023/04/08 03:52:12;;;;;;;34.45;20.15;;;;;;;-143.48;100.00;118439.88;5039509;28;20380;-68
2023/04/08 03:54:37;;;;;;;40.00;21.88;;;;;;;-143.48;100.00;118439.88;5057330;28;20111;-68
2023/04/08 03:57:02;;;;;;;40.85;21.80;;;;;;;-143.48;100.00;118439.88;5039216;28;20412;-68
2023/04/08 03:59:28;;;;;;;37.03;20.88;;;;;;;-143.48;100.00;118439.88;5056899;28;20036;-68
2023/04/08 04:01:53;;;;;;;30.73;18.35;;;;;;;-143.48;100.00;118439.88;5057179;28;20021;-68
2023/04/08 04:04:18;;;;;;;26.95;16.98;;;;;;;-143.48;100.00;118439.88;5056944;28;20105;-68
2023/04/08 04:06:44;;;;;;;25.60;15.70;;;;;;;-143.48;100.00;118439.88;5057133;28;20111;-68
2023/04/08 04:09:10;;;;;;;21.98;14.35;;;;;;;-143.48;97.98;118439.88;5055803;28;20017;-68
2023/04/08 04:11:35;;;;;;;22.20;13.93;;;;;;;-143.48;95.89;118439.88;5056998;28;20036;-68
2023/04/08 04:14:01;;;;;;;19.60;12.88;;;;;;;-143.48;95.67;118439.88;5056711;28;20534;-68
2023/04/08 04:16:26;;;;;;;21.58;13.68;;;;;;;-143.48;97.07;118439.88;5056775;28;20025;-68
2023/04/08 04:18:52;;;;;;;23.55;14.15;;;;;;;-143.48;96.81;118439.88;5056515;28;20029;-69
2023/04/08 04:21:18;;;;;;;24.00;13.20;;;;;;;-143.48;96.78;118439.88;5056815;28;20457;-68
2023/04/08 04:23:43;;;;;;;19.60;13.48;;;;;;;-143.48;97.85;118439.88;5056389;28;20037;-67
2023/04/08 04:26:09;;;;;;;19.90;13.60;;;;;;;-143.48;98.12;118439.88;5056663;28;20465;-67
2023/04/08 04:28:35;;;;;;;23.00;13.52;;;;;;;-143.48;98.19;118439.88;5056164;28;20029;-68
2023/04/08 04:31:00;;;;;;;23.20;14.30;;;;;;;-143.48;99.48;118439.88;5056342;28;20338;-68
2023/04/08 04:33:26;;;;;;;23.42;14.38;;;;;;;-143.48;99.25;118439.88;5056453;28;20032;-68
2023/04/08 04:35:51;;;;;;;22.67;13.90;;;;;;;-143.48;99.98;118439.88;5056146;28;20048;-68
2023/04/08 04:38:16;;;;;;;20.17;13.23;;;;;;;-143.48;99.76;118439.88;5056454;28;20479;-68
2023/04/08 04:40:43;;;;;;;23.05;13.57;;;;;;;-143.48;99.62;118439.88;5038192;28;20025;-68
2023/04/08 04:43:08;;;;;;;22.92;13.65;;;;;;;-143.48;99.41;118439.88;5055006;28;20029;-68
2023/04/08 04:45:34;;;;;;;23.17;13.13;;;;;;;-143.48;99.69;118439.88;5038222;28;20078;-68
2023/04/08 04:47:59;;;;;;;20.35;13.48;;;;;;;-143.48;100.00;118439.88;5037854;28;20518;-67
2023/04/08 04:50:25;;;;;;;19.60;13.43;;;;;;;-143.48;99.86;118439.88;5055040;28;20033;-67
2023/04/08 04:52:50;;;;;;;19.08;13.32;;;;;;;-143.48;100.00;118439.88;5038097;28;20029;-68
2023/04/08 04:55:15;;;;;;;21.38;13.30;;;;;;;-143.48;100.00;118439.88;5056171;28;20028;-68
2023/04/08 04:57:41;;;;;;;19.23;13.05;;;;;;;-143.48;100.00;118439.88;5055737;28;20503;-68
2023/04/08 05:00:07;;;;;;;20.33;13.10;;;;;;;-143.48;100.00;118439.88;5056056;28;20415;-68
2023/04/08 05:02:32;;;;;;;21.70;12.80;;;;;;;-143.48;100.00;118439.88;5055973;28;20518;-68
2023/04/08 05:04:58;;;;;;;22.00;14.27;;;;;;;-143.48;100.00;118439.88;5055903;28;20017;-68
2023/04/08 05:07:23;;;;;;;19.83;12.75;;;;;;;-143.48;100.00;118439.88;5055540;28;20068;-68
2023/04/08 05:09:48;;;;;;;21.48;13.05;;;;;;;-143.48;100.00;118439.88;5037914;28;20033;-67
2023/04/08 05:12:14;;;;;;;19.83;13.35;;;;;;;-143.48;100.00;118439.88;5055682;28;20040;-68
2023/04/08 05:14:41;;;;;;;18.98;12.50;;;;;;;-143.48;100.00;118439.88;5055603;28;20092;-68
2023/04/08 05:17:06;;;;;;;20.58;12.65;;;;;;;-143.48;100.00;118439.88;5054462;28;20024;-68
2023/04/08 05:19:31;;;;;;;19.83;12.85;;;;;;;-143.48;100.00;118439.88;5055258;28;20027;-69
2023/04/08 05:21:57;;;;;;;19.42;12.05;;;;;;;-143.48;100.00;118439.88;5037671;28;20055;-68
2023/04/08 05:24:22;;;;;;;20.38;12.57;;;;;;;-143.48;100.00;118439.88;5055206;28;20025;-67
2023/04/08 05:26:52;;;;;;;18.85;12.45;;;;;;;-143.48;100.00;118439.88;5055342;28;20035;-68
2023/04/08 05:29:17;;;;;;;19.02;11.85;;;;;;;-143.48;100.00;118439.88;5037424;28;20108;-68
2023/04/08 05:31:43;;;;;;;18.30;12.30;;;;;;;-143.48;100.00;118439.88;5055119;28;20032;-68
2023/04/08 05:34:10;;;;;;;17.95;11.98;;;;;;;-143.48;100.00;118439.88;5055355;28;20096;-67
2023/04/08 05:36:35;;;;;;;16.65;11.43;;;;;;;-143.48;100.00;118439.88;5055189;28;20533;-68
2023/04/08 05:39:00;;;;;;;17.77;10.88;;;;;;;-143.48;100.00;118439.88;5055247;28;20107;-68
2023/04/08 05:41:25;;;;;;;16.95;11.02;;;;;;;-143.48;100.00;118439.88;5054907;28;20048;-69
2023/04/08 05:43:51;;;;;;;16.23;11.30;;;;;;;-143.48;100.00;118439.88;5037248;28;20377;-68
2023/04/08 05:46:16;;;;;;;16.83;11.15;;;;;;;-143.48;100.00;118439.88;5037261;28;20075;-68
2023/04/08 05:48:41;;;;;;;15.57;10.75;;;;;;;-143.48;100.00;118439.88;5055041;28;20108;-67
2023/04/08 05:51:12;;;;;;;17.23;10.90;;;;;;;-143.48;99.49;118439.88;5054930;28;20029;-68
2023/04/08 05:53:38;;;;;;;18.20;10.88;;;;;;;-143.48;98.86;118439.88;5054822;28;20021;-67
2023/04/08 05:56:03;;;;;;;16.30;10.60;;;;;;;-143.48;99.01;118439.88;5054645;28;20025;-68
2023/04/08 05:58:29;;;;;;;15.93;10.50;;;;;;;-143.48;98.78;118439.88;5053874;28;20075;-68
2023/04/08 06:00:54;;;;;;;17.02;10.90;;;;;;;-143.48;98.45;118439.88;5054718;28;20049;-69
2023/04/08 06:03:19;;;;;;;15.25;10.75;;;;;;;-143.48;97.84;118439.88;5059115;28;20044;-68
2023/04/08 06:05:45;;;;;;;17.23;10.48;;;;;;;-143.48;96.86;118439.88;5057659;28;20029;-68
2023/04/08 06:08:10;;;;;;;18.13;10.73;;;;;;;-143.48;96.44;118439.88;5055684;28;20029;-68
2023/04/08 06:10:35;;;;;;;17.20;10.70;;;;;;;-143.48;95.77;118439.88;5054826;28;20100;-67
2023/04/08 06:13:01;;;;;;;15.50;10.90;;;;;;;-143.48;95.46;118439.88;5054994;28;20032;-67
2023/04/08 06:15:26;;;;;;;15.45;9.98;;;;;;;-143.48;95.13;118439.88;5054583;28;20064;-68
2023/04/08 06:17:52;;;;;;;17.95;10.82;;;;;;;-143.48;94.20;118439.88;5036332;28;20029;-68
2023/04/08 06:20:17;;;;;;;16.15;10.30;;;;;;;-143.48;94.28;118439.88;5054580;28;20071;-68
2023/04/08 06:22:42;;;;;;;17.60;10.88;;;;;;;-143.48;94.38;118439.88;5055442;28;20488;-69
2023/04/08 06:25:10;;;;;;;17.00;11.15;;;;;;;-143.48;93.58;118439.88;5054250;28;20491;-68
2023/04/08 06:27:36;;;;;;;17.75;10.52;;;;;;;-143.48;93.15;118439.88;5054521;28;20036;-69
2023/04/08 06:30:01;;;;;;;15.30;10.40;;;;;;;-143.48;93.20;118439.88;5054396;28;20017;-69
2023/04/08 06:32:26;;;;;;;15.95;10.93;;;;;;;-143.48;93.12;118439.88;5055648;28;20079;-67
2023/04/08 06:34:52;;;;;;;18.58;10.93;;;;;;;-143.48;92.07;118439.88;5036535;28;20028;-68
2023/04/08 06:37:17;;;;;;;16.60;10.23;;;;;;;-143.48;91.47;118439.88;5054610;28;20079;-68
2023/04/08 06:39:43;;;;;;;16.08;10.18;;;;;;;-143.48;90.23;118439.88;5054238;28;20028;-68
2023/04/08 06:42:08;;;;;;;15.85;10.80;;;;;;;-143.48;91.11;118439.88;5036057;28;20443;-68
2023/04/08 06:44:33;;;;;;;19.83;10.68;;;;;;;-143.48;89.64;118439.88;5055367;28;20061;-68
2023/04/08 06:46:59;;;;;;;13.88;9.88;;;;;;;-143.48;89.45;118439.88;5054157;28;20043;-68
2023/04/08 06:49:25;;;;;;;13.88;9.77;;;;;;;-143.48;86.39;118439.88;5054775;28;20056;-68
2023/04/08 06:51:51;;;;;;;15.85;9.85;;;;;;;-143.48;76.55;118439.88;5055241;28;20495;-68
2023/04/08 06:54:16;;;;;;;11.10;8.45;;;;;;;-143.48;63.98;118439.88;5055557;28;20017;-68
2023/04/08 06:56:41;;;;;;;10.52;8.02;;;;;;;-143.48;60.59;118439.88;5055785;28;20052;-69
2023/04/08 06:59:07;;;;;;;12.02;8.15;;;;;;;-143.48;62.40;118439.88;5057184;28;20043;-69
2023/04/08 07:01:32;;;;;;;10.52;7.60;;;;;;;-143.48;56.05;118439.88;5056262;28;20074;-69
2023/04/08 07:03:57;;;;;;;12.75;7.43;;;;;;;-143.48;56.27;118439.88;5054300;28;20465;-69
2023/04/08 07:06:23;;;;;;;14.32;7.13;;;;;;;-143.48;53.55;118439.88;5040417;28;20021;-69
2023/04/08 07:08:48;;;;;;;9.00;6.63;;;;;;;-143.48;52.39;118439.88;5057262;28;20025;-69
2023/04/08 07:11:14;;;;;;;8.23;6.43;;;;;;;-143.48;51.42;118439.88;5045446;28;20025;-70
2023/04/08 07:13:39;;;;;;;9.27;6.30;;;;;;;-143.48;52.77;118439.88;5061595;28;20028;-69
2023/04/08 07:16:05;;;;;;;8.20;6.43;;;;;;;-143.48;50.94;118439.88;5061917;28;20044;-69
2023/04/08 07:18:31;;;;;;;7.43;5.97;;;;;;;-143.48;50.92;118439.88;5059812;28;20108;-69
2023/04/08 07:20:57;;;;;;;9.68;6.07;;;;;;;-143.48;51.28;118439.88;5052333;28;20053;-69
2023/04/08 07:23:22;;;;;;;8.63;6.18;;;;;;;-143.48;48.56;118439.88;5052483;28;20534;-68
2023/04/08 07:25:47;;;;;;;7.68;6.00;;;;;;;-143.48;47.31;118439.88;5052550;28;20025;-68
2023/04/08 07:28:13;;;;;;;9.60;5.85;;;;;;;-143.48;48.28;118439.88;5053984;28;20348;-69
2023/04/08 07:30:38;;;;;;;9.85;6.18;;;;;;;-143.48;51.07;118439.88;5053475;28;20365;-68
2023/04/08 07:33:03;;;;;;;7.40;5.90;;;;;;;-143.48;49.88;118439.88;5054003;28;20036;-68
2023/04/08 07:35:30;;;;;;;9.13;6.00;;;;;;;-143.48;50.09;118439.88;5054017;28;20059;-69
2023/04/08 07:37:56;;;;;;;6.22;5.60;;;;;;;-143.48;48.47;118439.88;5069730;28;20048;-69
2023/04/08 07:40:22;;;;;;;8.23;5.95;;;;;;;-143.48;50.31;118439.88;5053674;28;20060;-69
2023/04/08 07:42:48;;;;;;;10.10;5.90;;;;;;;-143.48;47.83;118439.88;5053074;28;20048;-69
2023/04/08 07:45:13;;;;;;;8.73;5.40;;;;;;;-143.48;45.78;118439.88;5053325;28;20131;-69
2023/04/08 07:47:39;;;;;;;8.05;5.55;;;;;;;-143.48;49.34;118439.88;5053911;28;20111;-70
2023/04/08 07:50:05;;;;;;;9.07;5.70;;;;;;;-143.48;46.01;118439.88;5035459;28;20021;-69
2023/04/08 07:52:31;;;;;;;7.43;5.38;;;;;;;-143.48;46.41;118439.88;5053150;28;20104;-68
2023/04/08 07:54:56;;;;;;;7.93;5.60;;;;;;;-143.48;48.52;118439.88;5052671;28;20059;-70
2023/04/08 07:57:21;;;;;;;8.32;6.45;;;;;;;-143.48;45.81;118439.88;5053104;28;20029;-70
2023/04/08 07:59:46;;;;;;;8.52;5.45;;;;;;;-143.48;48.11;118439.88;5052661;28;20033;-68
2023/04/08 08:02:12;;;;;;;8.27;5.30;;;;;;;-143.48;48.86;118439.88;5053288;28;20079;-69
2023/04/08 08:04:37;;;;;;;8.60;5.97;;;;;;;-143.48;44.39;118439.88;5054489;28;20934;-69
2023/04/08 08:07:02;;;;;;;8.70;5.95;;;;;;;-143.48;44.20;118439.88;5035909;28;20021;-70
2023/04/08 08:09:28;;;;;;;9.15;6.10;;;;;;;-143.48;44.87;118439.88;5052884;28;20063;-69
2023/04/08 08:11:53;;;;;;;11.05;5.80;;;;;;;-143.48;48.55;118439.88;5053353;28;20024;-69
2023/04/08 08:14:18;;;;;;;7.90;5.47;;;;;;;-143.48;47.67;118439.88;5053099;28;20059;-69
2023/04/08 08:16:44;;;;;;;7.20;5.75;;;;;;;-143.48;46.27;118439.88;5059300;28;20025;-68
2023/04/08 08:19:11;;;;;;;8.68;5.97;;;;;;;-143.48;46.42;118439.88;5055587;28;20017;-69
2023/04/08 08:21:36;;;;;;;7.40;5.88;;;;;;;-143.48;43.79;118439.88;5057007;28;20029;-69
2023/04/08 08:24:02;;;;;;;7.22;6.10;;;;;;;-143.48;45.29;118439.88;5055627;28;20476;-68
2023/04/08 08:26:27;;;;;;;8.82;5.90;;;;;;;-143.48;45.10;118439.88;5055127;28;20139;-69
2023/04/08 08:28:53;;;;;;;9.27;6.03;;;;;;;-143.48;45.09;118439.88;5055123;28;20029;-69
2023/04/08 08:31:18;;;;;;;8.32;6.72;;;;;;;-143.48;46.35;118439.88;5055223;28;20561;-69
2023/04/08 08:33:44;;;;;;;9.95;6.45;;;;;;;-143.48;45.05;118439.88;5055114;28;20023;-69
2023/04/08 08:36:10;;;;;;;10.93;6.80;;;;;;;-143.48;42.51;118439.88;5054829;28;20028;-68
2023/04/08 08:38:35;;;;;;;8.63;6.47;;;;;;;-143.48;44.25;118439.88;5055258;28;20408;-68
2023/04/08 08:41:02;;;;;;;9.88;6.68;;;;;;;-143.48;45.19;118439.88;5057045;28;20041;-68
2023/04/08 08:43:28;;;;;;;9.50;6.57;;;;;;;-143.48;43.00;118439.88;5056329;28;20033;-68
2023/04/08 08:45:54;;;;;;;12.90;7.10;;;;;;;-143.48;41.86;118439.88;5056638;28;20029;-69
2023/04/08 08:48:19;;;;;;;12.50;7.30;;;;;;;-143.48;45.23;118439.88;5056450;28;20029;-69
2023/04/08 08:50:45;;;;;;;9.95;7.55;;;;;;;-143.48;41.83;118439.88;5056628;28;20032;-70
2023/04/08 08:53:11;;;;;;;8.77;6.63;;;;;;;-143.48;44.97;118439.88;5056243;28;20025;-68
2023/04/08 08:55:38;;;;;;;9.55;7.25;;;;;;;-143.48;46.49;118439.88;5056082;28;20052;-69
2023/04/08 08:58:04;;;;;;;9.73;7.43;;;;;;;-143.48;48.07;118439.88;5056424;28;20025;-68
2023/04/08 09:00:41;;;;;;;11.50;7.10;;;;;;;-143.48;48.88;118439.88;5056869;28;20032;-67
2023/04/08 09:03:24;;;;;;;10.18;7.22;;;;;;;-143.48;47.74;118439.88;5057272;28;20148;-68
2023/04/08 09:05:50;;;;;;;;;;;;;;;-143.48;49.78;118439.88;5057127;28;20021;-69
2023/04/08 09:08:36;;;;;;;10.23;7.47;;;;;;;-143.48;52.26;118439.88;5055957;28;20097;-68
2023/04/08 09:11:16;;;;;;;11.82;7.30;;;;;;;-143.48;49.53;118439.88;5056135;28;20035;-68
2023/04/08 09:13:42;;;;;;;10.48;7.13;;;;;;;-143.48;49.85;118439.88;5055818;28;20059;-68
2023/04/08 09:16:18;;;;;;;11.32;7.05;;;;;;;-143.48;49.66;118439.88;5055578;28;20075;-69
2023/04/08 09:18:46;;;;;;;13.40;7.15;;;;;;;-143.48;47.34;118439.88;5055468;28;20509;-69
2023/04/08 09:21:13;;;;;;;10.40;7.82;;;;;;;-143.48;47.04;118439.88;5055733;28;20025;-69
2023/04/08 09:23:39;;;;;;;10.35;7.65;;;;;;;-143.48;51.82;118439.88;5055823;28;20471;-69
2023/04/08 09:26:15;;;;;;;10.68;8.13;;;;;;;-143.48;47.89;118439.88;5055745;28;20029;-70
2023/04/08 09:28:42;;;;;;;12.52;7.40;;;;;;;-143.48;46.95;118439.88;5055252;28;20025;-69
2023/04/08 09:31:26;;;;;;;14.52;7.78;;;;;;;-143.48;47.77;118439.88;5037881;28;20036;-69
2023/04/08 09:33:54;;;;;;;11.32;7.82;;;;;;;-143.48;47.16;118439.88;5058114;28;20070;-69
2023/04/08 09:36:19;;;;;;;12.00;8.18;;;;;;;-143.48;48.66;118439.88;5055811;28;20025;-68
2023/04/08 09:38:46;;;;;;;14.48;8.05;;;;;;;-143.48;49.38;118439.88;5055916;28;20029;-68
2023/04/08 09:41:16;;;;;;;13.13;8.48;;;;;;;-143.48;49.87;118439.88;5054806;28;20053;-68
2023/04/08 09:43:50;;;;;;;21.55;8.35;;;;;;;-143.48;48.45;118439.88;5038288;28;20453;-69
2023/04/08 09:46:17;;;;;;;10.80;8.00;;;;;;;-143.48;48.52;118439.88;5037540;28;20024;-69
2023/04/08 09:49:06;;;;;;;13.57;8.27;;;;;;;-143.48;49.71;118439.88;5056639;28;20083;-68
2023/04/08 09:51:39;;;;;;;11.18;8.00;;;;;;;-143.48;48.63;118439.88;5040080;28;20345;-69
2023/04/08 09:54:13;;;;;;;14.02;8.80;;;;;;;-143.48;44.55;118439.88;5055526;28;20023;-69
2023/04/08 09:57:03;;;;;;;10.70;8.10;;;;;;;-143.48;47.35;118439.88;5058590;28;20024;-68
2023/04/08 09:59:32;;;;;;;11.20;7.68;;;;;;;-143.48;46.54;118439.88;5056998;28;20025;-69
2023/04/08 10:02:04;;;;;;;11.02;8.02;;;;;;;-143.48;46.69;118439.88;5056052;28;20059;-69
2023/04/08 10:04:34;;;;;;;11.57;7.97;;;;;;;-143.48;48.41;118439.88;5056384;28;20372;-68
2023/04/08 10:07:05;;;;;;;12.27;8.05;;;;;;;-143.48;46.92;118439.88;5056548;28;20361;-69
2023/04/08 10:09:31;;;;;;;10.57;8.18;;;;;;;-143.48;45.72;118439.88;5041742;28;20028;-68
2023/04/08 10:11:57;;;;;;;11.63;8.30;;;;;;;-143.48;47.08;118439.88;5056912;28;20028;-69
2023/04/08 10:14:22;;;;;;;11.70;8.30;;;;;;;-143.48;45.80;118439.88;5058767;28;20066;-69
2023/04/08 10:16:47;;;;;;;10.23;7.78;;;;;;;-143.48;45.72;118439.88;5056122;28;20449;-69
2023/04/08 10:19:37;;;;;;;11.65;7.82;;;;;;;-143.48;46.96;118439.88;5056967;28;20021;-69
2023/04/08 10:22:02;;;;;;;13.18;7.90;;;;;;;-143.48;45.62;118439.88;5038067;28;20029;-70
2023/04/08 10:24:28;;;;;;;10.07;7.63;;;;;;;-143.48;44.63;118439.88;5056440;28;20040;-69
2023/04/08 10:26:53;;;;;;;12.00;7.95;;;;;;;-143.48;43.07;118439.88;5055637;28;20476;-69
2023/04/08 10:29:28;;;;;;;11.45;7.70;;;;;;;-143.48;44.39;118439.88;5038927;28;20032;-68
2023/04/08 10:31:54;;;;;;;11.75;7.35;;;;;;;-143.48;45.81;118439.88;5055873;28;20146;-70
2023/04/08 10:34:25;;;;;;;9.90;7.43;;;;;;;-143.48;41.93;118439.88;5056185;28;20048;-70
2023/04/08 10:36:53;;;;;;;9.93;7.45;;;;;;;-143.48;46.08;118439.88;5055325;28;20136;-68
2023/04/08 10:39:18;;;;;;;10.90;7.43;;;;;;;-143.48;44.79;118439.88;5054998;28;20448;-69
2023/04/08 10:41:50;;;;;;;13.55;7.78;;;;;;;-143.48;44.42;118439.88;5055553;28;20052;-69
2023/04/08 10:44:21;;;;;;;10.77;7.43;;;;;;;-143.48;43.74;118439.88;5037852;28;20081;-69
2023/04/08 10:46:48;;;;;;;11.32;7.63;;;;;;;-143.48;43.75;118439.88;5037892;28;20375;-68
2023/04/08 10:49:14;;;;;;;11.48;7.50;;;;;;;-143.48;42.27;118439.88;5055879;28;20056;-69
2023/04/08 10:51:41;;;;;;;11.02;7.38;;;;;;;-143.48;42.75;118439.88;5055138;28;20077;-70
2023/04/08 10:54:08;;;;;;;9.77;7.38;;;;;;;-143.48;40.97;118439.88;5038720;28;20021;-68